createdAt,value
2023-03-26T00:02:05.701Z,81.60
2023-03-26T00:04:34.609Z,81.70
2023-03-26T00:07:03.181Z,82.20
2023-03-26T00:09:31.270Z,82.70
2023-03-26T00:12:00.811Z,83.00
2023-03-26T00:14:30.118Z,84.20
2023-03-26T00:16:58.196Z,84.80
2023-03-26T00:19:27.898Z,84.90
2023-03-26T00:21:57.741Z,84.80
2023-03-26T00:24:29.492Z,84.60
2023-03-26T00:26:57.572Z,84.70
2023-03-26T00:29:27.918Z,85.00
2023-03-26T00:31:55.911Z,84.30
2023-03-26T00:34:24.981Z,84.20
2023-03-26T00:36:54.682Z,85.00
2023-03-26T00:39:24.029Z,86.10
2023-03-26T00:41:54.520Z,86.40
2023-03-26T00:44:22.985Z,86.40
2023-03-26T00:46:52.673Z,86.90
2023-03-26T00:49:20.685Z,87.10
2023-03-26T00:51:48.672Z,87.10
2023-03-26T00:54:16.674Z,86.80
2023-03-26T00:56:44.720Z,86.30
2023-03-26T00:59:12.705Z,86.40
2023-03-26T01:01:40.789Z,87.60
2023-03-26T01:04:30.736Z,88.10
2023-03-26T01:07:02.823Z,88.40
2023-03-26T01:09:35.539Z,89.00
2023-03-26T01:12:08.139Z,89.30
2023-03-26T01:14:36.723Z,89.50
2023-03-26T01:17:07.298Z,89.50
2023-03-26T01:19:43.182Z,89.40
2023-03-26T01:22:14.733Z,88.90
2023-03-26T01:24:46.248Z,88.80
2023-03-26T01:27:24.392Z,88.70
2023-03-26T01:29:55.735Z,89.70
2023-03-26T01:32:34.435Z,89.70
2023-03-26T01:35:14.096Z,89.20
2023-03-26T01:37:52.851Z,88.70
2023-03-26T01:40:29.406Z,88.00
2023-03-26T01:43:03.886Z,87.60
2023-03-26T01:45:35.387Z,87.20
2023-03-26T01:48:04.128Z,88.50
2023-03-26T01:50:32.148Z,89.70
2023-03-26T01:53:00.225Z,89.90
2023-03-26T01:55:31.909Z,90.10
2023-03-26T01:58:04.646Z,90.60
2023-03-26T02:00:33.738Z,90.60
2023-03-26T02:03:06.199Z,90.80
2023-03-26T02:05:36.060Z,90.80
2023-03-26T02:08:09.560Z,90.80
2023-03-26T02:10:41.616Z,90.80
2023-03-26T02:13:09.453Z,90.90
2023-03-26T02:15:37.362Z,90.90
2023-03-26T02:18:05.244Z,91.00
2023-03-26T02:20:33.036Z,91.30
2023-03-26T02:23:00.958Z,91.50
2023-03-26T02:25:28.826Z,91.80
2023-03-26T02:27:57.960Z,92.00
2023-03-26T02:30:26.709Z,92.30
2023-03-26T02:32:54.583Z,92.40
2023-03-26T02:35:22.899Z,92.40
2023-03-26T02:37:51.850Z,92.80
2023-03-26T02:40:21.250Z,92.70
2023-03-26T02:42:49.525Z,92.70
2023-03-26T02:45:18.734Z,92.60
2023-03-26T02:47:46.603Z,92.60
2023-03-26T02:50:14.652Z,92.80
2023-03-26T02:52:45.377Z,92.80
2023-03-26T02:55:13.163Z,92.70
2023-03-26T02:57:41.301Z,92.80
2023-03-26T03:00:11.856Z,93.00
2023-03-26T03:02:41.300Z,93.20
2023-03-26T03:05:09.571Z,93.00
2023-03-26T03:07:38.638Z,93.20
2023-03-26T03:10:08.673Z,93.30
2023-03-26T03:12:36.761Z,93.40
2023-03-26T03:15:04.739Z,93.40
2023-03-26T03:17:32.586Z,93.70
2023-03-26T03:20:01.971Z,93.60
2023-03-26T03:22:29.783Z,93.70
2023-03-26T03:24:59.932Z,94.10
2023-03-26T03:27:27.795Z,93.70
2023-03-26T03:29:55.900Z,93.80
2023-03-26T03:32:24.097Z,94.00
2023-03-26T03:34:52.141Z,94.00
2023-03-26T03:37:21.432Z,93.90
2023-03-26T03:39:49.229Z,94.00
2023-03-26T03:42:17.060Z,94.00
2023-03-26T03:44:45.055Z,94.00
2023-03-26T03:47:13.854Z,93.80
2023-03-26T03:49:41.814Z,94.00
2023-03-26T03:52:09.575Z,93.80
2023-03-26T03:54:38.834Z,93.80
2023-03-26T03:57:06.664Z,93.80
2023-03-26T03:59:34.535Z,93.70
2023-03-26T04:02:02.694Z,93.80
2023-03-26T04:04:30.690Z,94.00
2023-03-26T04:06:58.550Z,93.90
2023-03-26T04:09:26.442Z,93.80
2023-03-26T04:11:55.626Z,93.50
2023-03-26T04:14:23.410Z,93.40
2023-03-26T04:16:51.297Z,93.50
2023-03-26T04:19:19.102Z,93.50
2023-03-26T04:21:47.247Z,93.20
2023-03-26T04:24:15.003Z,93.10
2023-03-26T04:26:42.789Z,92.70
2023-03-26T04:29:17.252Z,92.70
2023-03-26T04:31:47.188Z,92.90
2023-03-26T04:34:18.739Z,93.10
2023-03-26T04:36:46.761Z,93.40
2023-03-26T04:39:14.564Z,93.60
2023-03-26T04:41:42.397Z,93.70
2023-03-26T04:44:10.163Z,93.90
2023-03-26T04:46:43.730Z,94.20
2023-03-26T04:49:11.605Z,94.20
2023-03-26T04:51:41.935Z,93.90
2023-03-26T04:54:12.803Z,93.80
2023-03-26T04:56:44.115Z,93.60
2023-03-26T04:59:15.021Z,93.70
2023-03-26T05:01:46.120Z,93.50
2023-03-26T05:04:14.466Z,93.60
2023-03-26T05:06:43.101Z,93.70
2023-03-26T05:09:11.682Z,93.90
2023-03-26T05:11:39.642Z,94.20
2023-03-26T05:14:07.601Z,94.10
2023-03-26T05:16:37.320Z,93.90
2023-03-26T05:19:07.083Z,93.90
2023-03-26T05:21:35.154Z,93.80
2023-03-26T05:24:03.677Z,93.50
2023-03-26T05:26:31.642Z,93.40
2023-03-26T05:28:59.690Z,93.40
2023-03-26T05:31:28.150Z,93.00
2023-03-26T05:33:56.933Z,93.00
2023-03-26T05:36:26.526Z,93.10
2023-03-26T05:38:54.484Z,93.20
2023-03-26T05:41:22.433Z,93.20
2023-03-26T05:43:51.237Z,93.30
2023-03-26T05:46:20.395Z,93.10
2023-03-26T05:48:48.476Z,93.10
2023-03-26T05:51:16.999Z,93.10
2023-03-26T05:53:46.404Z,93.00
2023-03-26T05:56:14.579Z,93.00
2023-03-26T05:58:43.642Z,92.80
2023-03-26T06:01:16.997Z,92.80
2023-03-26T06:03:47.077Z,92.50
2023-03-26T06:06:16.898Z,92.50
2023-03-26T06:08:48.886Z,92.40
2023-03-26T06:11:31.074Z,92.40
2023-03-26T06:13:59.180Z,91.80
2023-03-26T06:16:28.218Z,91.50
2023-03-26T06:18:57.301Z,91.20
2023-03-26T06:21:25.764Z,90.90
2023-03-26T06:23:55.708Z,91.10
2023-03-26T06:26:23.941Z,91.10
2023-03-26T06:28:51.880Z,91.10
2023-03-26T06:31:20.206Z,90.90
2023-03-26T06:33:48.882Z,90.70
2023-03-26T06:36:16.943Z,90.80
2023-03-26T06:38:45.657Z,90.50
2023-03-26T06:41:15.432Z,90.30
2023-03-26T06:43:43.450Z,90.00
2023-03-26T06:46:11.937Z,89.40
2023-03-26T06:48:42.060Z,88.70
2023-03-26T06:51:10.663Z,88.80
2023-03-26T06:53:38.756Z,88.20
2023-03-26T06:56:09.121Z,88.10
2023-03-26T06:58:38.672Z,87.90
2023-03-26T07:01:07.322Z,87.70
2023-03-26T07:03:35.504Z,87.70
2023-03-26T07:06:03.606Z,87.90
2023-03-26T07:08:31.960Z,87.60
2023-03-26T07:11:00.006Z,87.30
2023-03-26T07:13:27.955Z,86.80
2023-03-26T07:15:57.289Z,86.50
2023-03-26T07:18:25.411Z,86.30
2023-03-26T07:20:54.805Z,86.50
2023-03-26T07:23:23.493Z,86.40
2023-03-26T07:25:52.281Z,86.70
2023-03-26T07:28:26.749Z,86.50
2023-03-26T07:31:04.110Z,87.00
2023-03-26T07:33:38.368Z,86.80
2023-03-26T07:36:18.172Z,86.70
2023-03-26T07:39:04.784Z,86.90
2023-03-26T07:41:41.781Z,86.30
2023-03-26T07:44:28.809Z,86.00
2023-03-26T07:46:59.921Z,87.50
2023-03-26T07:49:30.297Z,87.10
2023-03-26T07:51:58.976Z,85.70
2023-03-26T07:54:27.474Z,84.50
2023-03-26T07:57:00.046Z,84.00
2023-03-26T07:59:34.341Z,83.30
2023-03-26T08:02:25.006Z,82.80
2023-03-26T08:05:10.565Z,83.00
2023-03-26T08:07:52.820Z,82.70
2023-03-26T08:10:27.121Z,81.70
2023-03-26T08:13:03.637Z,82.10
2023-03-26T08:15:39.273Z,82.40
2023-03-26T08:18:21.817Z,81.70
2023-03-26T08:20:54.394Z,80.50
2023-03-26T08:23:28.994Z,80.40
2023-03-26T08:26:02.567Z,80.40
2023-03-26T08:28:55.290Z,80.20
2023-03-26T08:31:33.396Z,80.90
2023-03-26T08:34:03.208Z,80.50
2023-03-26T08:36:31.236Z,80.60
2023-03-26T08:39:00.073Z,80.20
2023-03-26T08:42:13.325Z,80.00
2023-03-26T08:45:13.075Z,79.50
2023-03-26T08:48:14.732Z,79.10
2023-03-26T08:51:10.620Z,78.40
2023-03-26T08:54:23.027Z,77.60
2023-03-26T08:56:55.198Z,76.20
2023-03-26T08:59:51.286Z,75.10
2023-03-26T09:02:48.504Z,73.90
2023-03-26T09:05:54.897Z,73.60
2023-03-26T09:09:19.011Z,72.90
2023-03-26T09:12:26.149Z,72.90
2023-03-26T09:15:32.103Z,71.90
2023-03-26T09:18:24.818Z,71.90
2023-03-26T09:21:43.295Z,71.70
2023-03-26T09:24:27.749Z,71.40
2023-03-26T09:27:08.936Z,71.60
2023-03-26T09:30:15.664Z,72.00
2023-03-26T09:33:18.135Z,71.20
2023-03-26T09:35:53.436Z,69.60
2023-03-26T09:38:46.278Z,69.30
2023-03-26T09:41:18.406Z,68.70
2023-03-26T09:44:14.875Z,67.60
2023-03-26T09:46:55.852Z,67.70
2023-03-26T09:49:45.120Z,68.80
2023-03-26T09:52:27.131Z,68.90
2023-03-26T09:55:11.021Z,68.30
2023-03-26T09:58:02.380Z,67.20
2023-03-26T10:00:37.386Z,66.40
2023-03-26T10:03:40.946Z,65.30
2023-03-26T10:06:23.376Z,64.90
2023-03-26T10:09:03.653Z,63.40
2023-03-26T10:11:41.663Z,64.20
2023-03-26T10:14:20.705Z,64.90
2023-03-26T10:17:01.386Z,65.30
2023-03-26T10:19:46.602Z,66.20
2023-03-26T10:22:28.961Z,65.10
2023-03-26T10:25:23.180Z,66.00
2023-03-26T10:28:02.291Z,65.30
2023-03-26T10:30:46.149Z,64.00
2023-03-26T10:33:25.061Z,63.40
2023-03-26T10:36:03.344Z,63.30
2023-03-26T10:38:50.969Z,63.20
2023-03-26T10:41:28.299Z,62.70
2023-03-26T10:44:15.823Z,63.20
2023-03-26T10:47:15.714Z,63.40
2023-03-26T10:50:01.344Z,64.70
2023-03-26T10:52:35.945Z,64.80
2023-03-26T10:55:14.937Z,65.70
2023-03-26T10:57:46.538Z,65.40
2023-03-26T11:00:18.189Z,65.40
2023-03-26T11:02:57.048Z,65.30
2023-03-26T11:05:44.028Z,64.70
2023-03-26T11:08:19.264Z,64.60
2023-03-26T11:11:07.351Z,64.70
2023-03-26T11:13:45.921Z,65.30
2023-03-26T11:16:19.758Z,65.20
2023-03-26T11:18:55.570Z,65.20
2023-03-26T11:21:29.046Z,65.30
2023-03-26T11:24:13.670Z,65.50
2023-03-26T11:26:53.090Z,65.00
2023-03-26T11:29:36.573Z,64.70
2023-03-26T11:32:07.502Z,65.10
2023-03-26T11:34:41.515Z,64.80
2023-03-26T11:37:16.863Z,63.50
2023-03-26T11:40:02.961Z,64.00
2023-03-26T11:42:31.312Z,63.70
2023-03-26T11:45:03.522Z,64.50
2023-03-26T11:47:36.881Z,65.00
2023-03-26T11:50:09.239Z,65.50
2023-03-26T11:52:37.458Z,65.40
2023-03-26T11:55:06.671Z,65.10
2023-03-26T11:57:38.096Z,65.30
2023-03-26T12:00:16.842Z,65.80
2023-03-26T12:02:46.549Z,66.10
2023-03-26T12:05:20.319Z,67.00
2023-03-26T12:07:53.422Z,66.00
2023-03-26T12:10:32.153Z,65.60
2023-03-26T12:13:02.530Z,65.80
2023-03-26T12:15:32.152Z,66.00
2023-03-26T12:18:18.614Z,65.90
2023-03-26T12:20:48.249Z,65.90
2023-03-26T12:23:36.427Z,66.30
2023-03-26T12:26:15.914Z,66.30
2023-03-26T12:28:48.815Z,66.10
2023-03-26T12:31:19.519Z,66.30
2023-03-26T12:34:06.074Z,67.00
2023-03-26T12:36:36.425Z,67.30
2023-03-26T12:40:08.956Z,67.30
2023-03-26T12:44:51.244Z,67.10
2023-03-26T12:45:16.210Z,66.80
2023-03-26T12:47:58.182Z,66.50
2023-03-26T12:50:36.564Z,66.40
2023-03-26T12:53:20.129Z,66.30
2023-03-26T12:56:00.521Z,66.50
2023-03-26T12:58:48.026Z,66.60
2023-03-26T13:01:25.760Z,66.60
2023-03-26T13:04:13.435Z,66.60
2023-03-26T13:06:59.057Z,66.50
2023-03-26T13:09:58.485Z,66.80
2023-03-26T13:12:35.588Z,66.60
2023-03-26T13:15:26.641Z,66.60
2023-03-26T13:18:07.728Z,66.80
2023-03-26T13:20:50.177Z,66.90
2023-03-26T13:23:30.262Z,67.30
2023-03-26T13:26:11.442Z,67.10
2023-03-26T13:28:47.579Z,66.80
2023-03-26T13:31:23.040Z,67.10
2023-03-26T13:34:00.686Z,67.30
2023-03-26T13:36:37.721Z,67.10
2023-03-26T13:39:18.198Z,67.50
2023-03-26T13:42:19.550Z,67.40
2023-03-26T13:45:05.286Z,67.50
2023-03-26T13:47:37.907Z,68.00
2023-03-26T13:50:15.461Z,68.20
2023-03-26T13:52:51.637Z,68.80
2023-03-26T13:55:27.118Z,68.20
2023-03-26T13:58:03.227Z,72.10
2023-03-26T14:00:47.780Z,78.30
2023-03-26T14:03:24.348Z,82.50
2023-03-26T14:05:56.439Z,85.90
2023-03-26T14:08:32.662Z,87.20
2023-03-26T14:11:10.808Z,90.00
2023-03-26T14:13:47.326Z,91.50
2023-03-26T14:16:20.052Z,92.40
2023-03-26T14:18:54.253Z,93.20
2023-03-26T14:21:49.202Z,94.10
2023-03-26T14:25:05.121Z,95.20
2023-03-26T14:27:52.197Z,96.20
2023-03-26T14:30:59.868Z,96.80
2023-03-26T14:34:03.785Z,97.10
2023-03-26T14:36:52.978Z,97.70
2023-03-26T14:39:51.559Z,98.80
2023-03-26T14:42:24.235Z,99.30
2023-03-26T14:45:34.055Z,99.90
2023-03-26T14:48:26.620Z,99.60
2023-03-26T14:51:08.016Z,99.90
2023-03-26T14:53:40.120Z,99.70
2023-03-26T14:56:38.511Z,99.90
2023-03-26T14:59:37.620Z,99.90
2023-03-26T15:02:54.183Z,99.90
2023-03-26T15:06:02.281Z,99.90
2023-03-26T15:09:13.340Z,99.90
2023-03-26T15:11:47.021Z,99.90
2023-03-26T15:14:51.720Z,99.90
2023-03-26T15:17:47.610Z,99.90
2023-03-26T15:20:56.674Z,99.90
2023-03-26T15:23:47.394Z,99.90
2023-03-26T15:26:53.572Z,99.90
2023-03-26T15:29:49.210Z,99.90
2023-03-26T15:32:57.170Z,99.90
2023-03-26T15:35:53.786Z,99.90
2023-03-26T15:38:55.268Z,99.90
2023-03-26T15:41:30.304Z,99.90
2023-03-26T15:44:22.302Z,99.90
2023-03-26T15:47:00.389Z,99.90
2023-03-26T15:49:39.780Z,99.90
2023-03-26T15:52:23.027Z,99.90
2023-03-26T15:54:59.545Z,99.90
2023-03-26T15:57:34.605Z,99.90
2023-03-26T16:00:22.837Z,99.90
2023-03-26T16:03:09.235Z,99.90
2023-03-26T16:05:47.617Z,99.90
2023-03-26T16:08:25.642Z,99.90
2023-03-26T16:10:57.084Z,99.90
2023-03-26T16:13:38.625Z,99.90
2023-03-26T16:16:26.051Z,99.90
2023-03-26T16:19:19.432Z,99.90
2023-03-26T16:21:56.243Z,99.90
2023-03-26T16:24:28.149Z,99.90
2023-03-26T16:27:07.930Z,99.90
2023-03-26T16:30:09.514Z,99.90
2023-03-26T16:32:41.488Z,99.90
2023-03-26T16:35:39.654Z,99.90
2023-03-26T16:38:12.821Z,99.90
2023-03-26T16:41:00.059Z,99.90
2023-03-26T16:43:59.925Z,99.90
2023-03-26T16:46:37.442Z,99.90
2023-03-26T16:49:17.318Z,99.90
2023-03-26T16:51:57.360Z,99.90
2023-03-26T16:54:36.234Z,99.90
2023-03-26T16:57:17.385Z,99.90
2023-03-26T17:00:07.361Z,99.90
2023-03-26T17:02:54.762Z,99.90
2023-03-26T17:05:34.311Z,99.90
2023-03-26T17:08:13.377Z,99.90
2023-03-26T17:10:47.423Z,99.90
2023-03-26T17:13:24.176Z,99.90
2023-03-26T17:16:02.313Z,99.90
2023-03-26T17:18:42.837Z,99.90
2023-03-26T17:21:16.139Z,99.90
2023-03-26T17:24:03.956Z,99.90
2023-03-26T17:26:44.254Z,99.90
2023-03-26T17:29:28.986Z,99.90
2023-03-26T17:32:04.664Z,99.90
2023-03-26T17:34:46.844Z,99.90
2023-03-26T17:37:43.485Z,99.90
2023-03-26T17:40:54.553Z,99.90
2023-03-26T17:43:42.963Z,99.90
2023-03-26T17:46:23.576Z,99.90
2023-03-26T17:48:58.264Z,99.90
2023-03-26T17:51:40.313Z,99.90
2023-03-26T17:54:14.751Z,99.90
2023-03-26T17:56:43.198Z,99.90
2023-03-26T17:59:23.104Z,99.90
2023-03-26T18:01:55.420Z,99.90
2023-03-26T18:04:31.263Z,99.90
2023-03-26T18:07:44.071Z,99.90
2023-03-26T18:10:33.240Z,99.90
2023-03-26T18:13:15.279Z,99.90
2023-03-26T18:15:51.672Z,99.90
2023-03-26T18:18:23.632Z,99.90
2023-03-26T18:23:26.480Z,99.90
2023-03-26T18:25:59.225Z,99.90
2023-03-26T18:28:35.490Z,99.90
2023-03-26T18:31:11.175Z,99.90
2023-03-26T18:33:44.411Z,99.90
2023-03-26T18:36:13.469Z,99.90
2023-03-26T18:38:42.888Z,99.90
2023-03-26T18:41:20.006Z,99.90
2023-03-26T18:43:48.128Z,99.90
2023-03-26T18:46:17.056Z,99.90
2023-03-26T18:48:47.269Z,99.90
2023-03-26T18:51:22.473Z,99.90
2023-03-26T18:53:55.044Z,99.90
2023-03-26T18:56:33.682Z,99.90
2023-03-26T18:59:04.191Z,99.90
2023-03-26T19:01:34.128Z,99.90
2023-03-26T19:04:05.492Z,99.90
2023-03-26T19:06:38.284Z,99.90
2023-03-26T19:09:23.908Z,99.90
2023-03-26T19:12:06.789Z,99.90
2023-03-26T19:14:37.146Z,99.90
2023-03-26T19:17:07.810Z,99.90
2023-03-26T19:19:38.201Z,99.90
2023-03-26T19:22:07.130Z,99.90
2023-03-26T19:24:36.305Z,99.90
2023-03-26T19:27:06.428Z,99.90
2023-03-26T19:29:36.223Z,99.90
2023-03-26T19:32:06.327Z,99.90
2023-03-26T19:34:35.968Z,99.90
2023-03-26T19:37:17.236Z,99.90
2023-03-26T19:39:47.680Z,99.90
2023-03-26T19:42:20.558Z,99.90
2023-03-26T19:44:51.196Z,99.90
2023-03-26T19:47:29.086Z,99.90
2023-03-26T19:50:23.342Z,99.90
2023-03-26T19:53:15.423Z,99.90
2023-03-26T19:55:54.456Z,99.90
2023-03-26T19:58:24.032Z,99.90
2023-03-26T20:00:52.017Z,99.90
2023-03-26T20:03:26.633Z,99.90
2023-03-26T20:05:54.722Z,99.90
2023-03-26T20:08:27.127Z,99.90
2023-03-26T20:10:56.680Z,99.90
2023-03-26T20:13:26.223Z,99.90
2023-03-26T20:16:05.975Z,99.90
2023-03-26T20:18:34.565Z,99.90
2023-03-26T20:21:02.670Z,99.90
2023-03-26T20:23:30.657Z,99.90
2023-03-26T20:25:58.839Z,99.90
2023-03-26T20:28:28.151Z,99.90
2023-03-26T20:30:56.256Z,99.90
2023-03-26T20:33:26.816Z,99.90
2023-03-26T20:35:55.799Z,99.90
2023-03-26T20:38:36.662Z,99.90
2023-03-26T20:41:07.260Z,99.90
2023-03-26T20:43:36.681Z,99.90
2023-03-26T20:46:05.025Z,99.90
2023-03-26T20:48:33.062Z,99.90
2023-03-26T20:51:01.727Z,99.90
2023-03-26T20:53:30.449Z,99.90
2023-03-26T20:55:58.708Z,99.90
2023-03-26T20:58:31.497Z,99.90
2023-03-26T21:01:02.909Z,99.90
2023-03-26T21:03:31.052Z,99.90
2023-03-26T21:06:02.064Z,99.90
2023-03-26T21:08:35.395Z,99.90
2023-03-26T21:11:05.523Z,99.90
2023-03-26T21:13:38.968Z,99.90
2023-03-26T21:16:11.047Z,99.90
2023-03-26T21:18:39.763Z,99.90
2023-03-26T21:21:23.348Z,99.90
2023-03-26T21:23:59.333Z,99.90
2023-03-26T21:26:33.624Z,99.90
2023-03-26T21:29:09.652Z,99.90
2023-03-26T21:31:39.812Z,99.90
2023-03-26T21:34:09.706Z,99.90
2023-03-26T21:36:38.389Z,99.90
2023-03-26T21:39:07.229Z,99.90
2023-03-26T21:41:47.913Z,99.90
2023-03-26T21:44:16.537Z,99.90
2023-03-26T21:46:47.780Z,99.90
2023-03-26T21:49:18.234Z,99.90
2023-03-26T21:51:47.194Z,99.90
2023-03-26T21:54:26.229Z,99.90
2023-03-26T21:57:22.872Z,99.90
2023-03-26T22:00:02.482Z,99.90
2023-03-26T22:02:41.214Z,99.90
2023-03-26T22:05:15.995Z,99.90
2023-03-26T22:07:53.969Z,99.90
2023-03-26T22:10:22.152Z,99.90
2023-03-26T22:12:50.410Z,99.90
2023-03-26T22:15:19.259Z,99.90
2023-03-26T22:17:54.183Z,99.90
2023-03-26T22:20:25.221Z,99.90
2023-03-26T22:22:55.291Z,99.90
2023-03-26T22:25:24.982Z,99.90
2023-03-26T22:27:53.921Z,99.90
2023-03-26T22:30:21.978Z,99.90
2023-03-26T22:32:51.777Z,99.90
2023-03-26T22:35:20.382Z,99.90
2023-03-26T22:37:49.076Z,99.90
2023-03-26T22:40:17.913Z,99.90
2023-03-26T22:42:45.992Z,99.90
2023-03-26T22:45:14.273Z,99.90
2023-03-26T22:47:42.397Z,99.90
2023-03-26T22:50:12.232Z,99.90
2023-03-26T22:52:41.575Z,99.90
2023-03-26T22:55:11.904Z,99.90
2023-03-26T22:57:39.898Z,99.90
2023-03-26T23:00:16.215Z,99.90
2023-03-26T23:02:45.887Z,99.90
2023-03-26T23:05:17.492Z,99.90
2023-03-26T23:07:46.333Z,99.90
2023-03-26T23:10:14.656Z,99.90
2023-03-26T23:12:42.605Z,99.90
2023-03-26T23:15:11.602Z,99.90
2023-03-26T23:17:39.670Z,99.90
2023-03-26T23:20:14.902Z,99.90
2023-03-26T23:22:45.136Z,99.90
2023-03-26T23:25:13.075Z,99.90
2023-03-26T23:27:41.599Z,99.90
2023-03-26T23:30:11.834Z,99.90
2023-03-26T23:32:40.731Z,99.90
2023-03-26T23:35:09.380Z,99.90
2023-03-26T23:37:37.396Z,99.90
2023-03-26T23:40:10.278Z,99.90
2023-03-26T23:42:38.539Z,99.90
2023-03-26T23:45:08.555Z,99.90
2023-03-26T23:47:37.317Z,99.90
2023-03-26T23:50:06.411Z,99.90
2023-03-26T23:52:34.418Z,99.90
2023-03-26T23:55:02.592Z,99.90
2023-03-26T23:57:31.928Z,99.90
2023-03-26T23:59:59.977Z,99.90
